OCN2A EDDF-LIBD
Flight info
| Callsign | OCN2A |
|---|---|
| Flight time | 1h 48m |
| Altitude | 37000 |
| Route | CINDY2D CINDY Z74 LAMPU DCT NOMBO Y161 RIDAR DCT KONIN DCT BERAS DCT LIKDA DCT BAKOR DCT MOBDO DCT ERITU DCT RUPAX DCT AFCAM DCT BEFHE DCT EKMUR |
| Aircraft | A320/M-SDE2E3FGIJ1LORWXYZ/HB1 |
Departure
| Time | 2026-05-08 09:37 |
|---|---|
| Airport | Frankfurt Main Airport (EDDF) |
Arrival
| Time | 2026-05-08 11:25 |
|---|---|
| Airport | Bari Karol Wojtyła International Airport (LIBD) |
| Time | Latitude | Longitude | Altitude | Speed | Heading |
|---|---|---|---|---|---|
| 2026-05-08 09:08 | 50.04534 | 8.56583 | 355 ft | 0 kts | 115° |
| 2026-05-08 09:24 | 50.04535 | 8.56579 | 345 ft | 2 kts | 115° |
| 2026-05-08 09:24 | 50.04543 | 8.56553 | 353 ft | 3 kts | 119° |
| 2026-05-08 09:24 | 50.04553 | 8.56526 | 354 ft | 3 kts | 124° |
| 2026-05-08 09:25 | 50.04565 | 8.56501 | 347 ft | 3 kts | 134° |
| 2026-05-08 09:25 | 50.04580 | 8.56481 | 354 ft | 3 kts | 154° |
| 2026-05-08 09:25 | 50.04596 | 8.56473 | 351 ft | 2 kts | 197° |
| 2026-05-08 09:25 | 50.04600 | 8.56475 | 352 ft | 0 kts | 206° |
| 2026-05-08 09:28 | 50.04595 | 8.56471 | 351 ft | 3 kts | 206° |
| 2026-05-08 09:28 | 50.04563 | 8.56447 | 350 ft | 5 kts | 206° |
| 2026-05-08 09:28 | 50.04526 | 8.56412 | 353 ft | 12 kts | 225° |
| 2026-05-08 09:29 | 50.04488 | 8.56273 | 345 ft | 14 kts | 250° |
| 2026-05-08 09:29 | 50.04457 | 8.56144 | 347 ft | 12 kts | 249° |
| 2026-05-08 09:29 | 50.04418 | 8.56040 | 345 ft | 10 kts | 215° |
| 2026-05-08 09:29 | 50.04388 | 8.56033 | 345 ft | 0 kts | 174° |
| 2026-05-08 09:30 | 50.04376 | 8.56037 | 353 ft | 2 kts | 163° |
| 2026-05-08 09:30 | 50.04350 | 8.56050 | 347 ft | 13 kts | 162° |
| 2026-05-08 09:30 | 50.04260 | 8.56031 | 351 ft | 14 kts | 234° |
| 2026-05-08 09:31 | 50.04230 | 8.55902 | 347 ft | 12 kts | 251° |
| 2026-05-08 09:31 | 50.04204 | 8.55788 | 353 ft | 10 kts | 251° |
| 2026-05-08 09:31 | 50.04182 | 8.55687 | 355 ft | 9 kts | 251° |
| 2026-05-08 09:31 | 50.04159 | 8.55591 | 349 ft | 12 kts | 249° |
| 2026-05-08 09:32 | 50.04121 | 8.55440 | 354 ft | 18 kts | 249° |
| 2026-05-08 09:32 | 50.04071 | 8.55236 | 348 ft | 20 kts | 249° |
| 2026-05-08 09:32 | 50.04026 | 8.55039 | 349 ft | 19 kts | 249° |
| 2026-05-08 09:32 | 50.03981 | 8.54860 | 355 ft | 17 kts | 249° |
| 2026-05-08 09:33 | 50.03942 | 8.54700 | 350 ft | 15 kts | 251° |
| 2026-05-08 09:33 | 50.03908 | 8.54557 | 355 ft | 13 kts | 249° |
| 2026-05-08 09:33 | 50.03877 | 8.54431 | 350 ft | 12 kts | 249° |
| 2026-05-08 09:33 | 50.03815 | 8.54268 | 351 ft | 20 kts | 235° |
| 2026-05-08 09:34 | 50.03762 | 8.54075 | 350 ft | 19 kts | 251° |
| 2026-05-08 09:34 | 50.03721 | 8.53892 | 355 ft | 17 kts | 250° |
| 2026-05-08 09:34 | 50.03682 | 8.53728 | 347 ft | 16 kts | 250° |
| 2026-05-08 09:34 | 50.03634 | 8.53535 | 350 ft | 22 kts | 248° |
| 2026-05-08 09:35 | 50.03574 | 8.53291 | 355 ft | 25 kts | 250° |
| 2026-05-08 09:35 | 50.03513 | 8.53039 | 351 ft | 25 kts | 249° |
| 2026-05-08 09:35 | 50.03451 | 8.52791 | 347 ft | 21 kts | 247° |
| 2026-05-08 09:35 | 50.03407 | 8.52630 | 349 ft | 13 kts | 245° |
| 2026-05-08 09:36 | 50.03330 | 8.52593 | 347 ft | 14 kts | 178° |
| 2026-05-08 09:36 | 50.03025 | 8.52598 | 351 ft | 80 kts | 180° |
| 2026-05-08 09:36 | 50.02254 | 8.52607 | 347 ft | 139 kts | 180° |
| 2026-05-08 09:36 | 50.01130 | 8.52622 | 380 ft | 180 kts | 179° |
| 2026-05-08 09:37 | 49.99906 | 8.52628 | 1108 ft | 172 kts | 178° |
| 2026-05-08 09:37 | 49.98702 | 8.52620 | 1800 ft | 176 kts | 179° |
| 2026-05-08 09:37 | 49.97440 | 8.52913 | 2129 ft | 194 kts | 156° |
| 2026-05-08 09:37 | 49.96255 | 8.54093 | 2457 ft | 214 kts | 133° |
| 2026-05-08 09:38 | 49.95417 | 8.56052 | 3096 ft | 222 kts | 116° |
| 2026-05-08 09:38 | 49.94680 | 8.58189 | 3871 ft | 227 kts | 118° |
| 2026-05-08 09:38 | 49.94118 | 8.60492 | 4633 ft | 234 kts | 101° |
| 2026-05-08 09:38 | 49.93950 | 8.63131 | 5047 ft | 257 kts | 94° |
| 2026-05-08 09:39 | 49.93827 | 8.65968 | 5732 ft | 268 kts | 97° |
| 2026-05-08 09:39 | 49.93307 | 8.68761 | 6543 ft | 273 kts | 117° |
| 2026-05-08 09:39 | 49.92198 | 8.71161 | 7329 ft | 276 kts | 137° |
| 2026-05-08 09:39 | 49.90667 | 8.72987 | 8131 ft | 279 kts | 147° |
| 2026-05-08 09:40 | 49.89112 | 8.74826 | 8971 ft | 284 kts | 138° |
| 2026-05-08 09:40 | 49.87831 | 8.77185 | 9801 ft | 290 kts | 124° |
| 2026-05-08 09:40 | 49.86820 | 8.79938 | 10427 ft | 302 kts | 121° |
| 2026-05-08 09:40 | 49.85757 | 8.82883 | 10682 ft | 324 kts | 121° |
| 2026-05-08 09:41 | 49.84634 | 8.85988 | 11202 ft | 335 kts | 121° |
| 2026-05-08 09:41 | 49.83482 | 8.89172 | 11899 ft | 341 kts | 120° |
| 2026-05-08 09:41 | 49.82316 | 8.92392 | 12624 ft | 345 kts | 120° |
| 2026-05-08 09:41 | 49.81133 | 8.95653 | 13339 ft | 349 kts | 120° |
| 2026-05-08 09:42 | 49.80340 | 8.97830 | 13818 ft | 352 kts | 120° |
| 2026-05-08 09:42 | 49.79127 | 9.01151 | 14448 ft | 357 kts | 120° |
| 2026-05-08 09:42 | 49.77898 | 9.04512 | 15070 ft | 361 kts | 120° |
| 2026-05-08 09:42 | 49.76685 | 9.07932 | 15689 ft | 365 kts | 116° |
| 2026-05-08 09:43 | 49.75799 | 9.11636 | 16306 ft | 370 kts | 105° |
| 2026-05-08 09:43 | 49.75137 | 9.15503 | 16899 ft | 374 kts | 109° |
| 2026-05-08 09:43 | 49.74081 | 9.19191 | 17485 ft | 377 kts | 121° |
| 2026-05-08 09:43 | 49.72578 | 9.22516 | 18084 ft | 379 kts | 132° |
| 2026-05-08 09:44 | 49.70828 | 9.25586 | 18665 ft | 383 kts | 133° |
| 2026-05-08 09:44 | 49.69062 | 9.28686 | 19207 ft | 386 kts | 133° |
| 2026-05-08 09:44 | 49.67285 | 9.31810 | 19759 ft | 388 kts | 133° |
| 2026-05-08 09:44 | 49.65499 | 9.34956 | 20303 ft | 391 kts | 133° |
| 2026-05-08 09:45 | 49.63704 | 9.38126 | 20849 ft | 394 kts | 133° |
| 2026-05-08 09:45 | 49.61774 | 9.41121 | 21356 ft | 394 kts | 142° |
| 2026-05-08 09:45 | 49.59537 | 9.43560 | 21854 ft | 395 kts | 152° |
| 2026-05-08 09:45 | 49.57166 | 9.45717 | 22351 ft | 397 kts | 152° |
| 2026-05-08 09:46 | 49.54781 | 9.47892 | 22838 ft | 400 kts | 152° |
| 2026-05-08 09:46 | 49.52382 | 9.50082 | 23326 ft | 402 kts | 152° |
| 2026-05-08 09:46 | 49.49971 | 9.52286 | 23793 ft | 405 kts | 151° |
| 2026-05-08 09:46 | 49.47577 | 9.54474 | 24187 ft | 407 kts | 152° |
| 2026-05-08 09:47 | 49.45105 | 9.56730 | 24594 ft | 409 kts | 152° |
| 2026-05-08 09:47 | 49.42651 | 9.58963 | 24984 ft | 411 kts | 152° |
| 2026-05-08 09:47 | 49.40182 | 9.61202 | 25378 ft | 413 kts | 152° |
| 2026-05-08 09:47 | 49.37702 | 9.63449 | 25755 ft | 415 kts | 152° |
| 2026-05-08 09:48 | 49.35218 | 9.65742 | 26143 ft | 418 kts | 149° |
| 2026-05-08 09:48 | 49.32915 | 9.68500 | 26514 ft | 423 kts | 139° |
| 2026-05-08 09:48 | 49.30820 | 9.71684 | 26892 ft | 426 kts | 137° |
| 2026-05-08 09:48 | 49.28723 | 9.74903 | 27265 ft | 427 kts | 137° |
| 2026-05-08 09:49 | 49.26615 | 9.78128 | 27630 ft | 430 kts | 137° |
| 2026-05-08 09:49 | 49.24519 | 9.81321 | 27973 ft | 432 kts | 138° |
| 2026-05-08 09:49 | 49.22377 | 9.84568 | 28300 ft | 435 kts | 138° |
| 2026-05-08 09:49 | 49.20223 | 9.87829 | 28648 ft | 437 kts | 138° |
| 2026-05-08 09:50 | 49.18059 | 9.91106 | 29002 ft | 439 kts | 138° |
| 2026-05-08 09:50 | 49.15884 | 9.94400 | 29336 ft | 441 kts | 138° |
| 2026-05-08 09:50 | 49.13698 | 9.97707 | 29660 ft | 443 kts | 138° |
| 2026-05-08 09:50 | 49.11503 | 10.01028 | 29981 ft | 445 kts | 138° |
| 2026-05-08 09:51 | 49.09295 | 10.04359 | 30283 ft | 447 kts | 138° |
| 2026-05-08 09:51 | 49.07080 | 10.07699 | 30556 ft | 448 kts | 138° |
| 2026-05-08 09:51 | 49.04849 | 10.11031 | 30890 ft | 449 kts | 139° |
| 2026-05-08 09:51 | 49.02579 | 10.14316 | 31202 ft | 451 kts | 140° |
| 2026-05-08 09:52 | 49.00277 | 10.17565 | 31481 ft | 452 kts | 140° |
| 2026-05-08 09:52 | 48.97961 | 10.20788 | 31856 ft | 450 kts | 140° |
| 2026-05-08 09:52 | 48.95648 | 10.23993 | 32277 ft | 449 kts | 140° |
| 2026-05-08 09:52 | 48.93350 | 10.27191 | 32671 ft | 447 kts | 140° |
| 2026-05-08 09:53 | 48.91067 | 10.30390 | 33047 ft | 446 kts | 140° |
| 2026-05-08 09:53 | 48.88796 | 10.33587 | 33420 ft | 444 kts | 140° |
| 2026-05-08 09:53 | 48.86535 | 10.36778 | 33771 ft | 443 kts | 140° |
| 2026-05-08 09:53 | 48.84280 | 10.39963 | 34161 ft | 442 kts | 140° |
| 2026-05-08 09:54 | 48.82043 | 10.43163 | 34443 ft | 442 kts | 139° |
| 2026-05-08 09:54 | 48.79876 | 10.46470 | 34692 ft | 443 kts | 137° |
| 2026-05-08 09:54 | 48.77758 | 10.49869 | 34906 ft | 443 kts | 136° |
| 2026-05-08 09:54 | 48.75665 | 10.53309 | 35106 ft | 445 kts | 136° |
| 2026-05-08 09:55 | 48.73571 | 10.56768 | 35295 ft | 446 kts | 136° |
| 2026-05-08 09:55 | 48.71468 | 10.60216 | 35513 ft | 446 kts | 136° |
| 2026-05-08 09:55 | 48.69344 | 10.63651 | 35743 ft | 447 kts | 136° |
| 2026-05-08 09:55 | 48.67207 | 10.67066 | 35949 ft | 447 kts | 137° |
| 2026-05-08 09:56 | 48.65057 | 10.70466 | 36187 ft | 447 kts | 137° |
| 2026-05-08 09:56 | 48.62901 | 10.73863 | 36407 ft | 448 kts | 137° |
| 2026-05-08 09:56 | 48.60741 | 10.77252 | 36595 ft | 447 kts | 139° |
| 2026-05-08 09:56 | 48.58383 | 10.80275 | 36781 ft | 443 kts | 148° |
| 2026-05-08 09:57 | 48.53044 | 10.84817 | 37085 ft | 441 kts | 156° |
| 2026-05-08 09:57 | 48.47608 | 10.89054 | 37111 ft | 439 kts | 156° |
| 2026-05-08 09:58 | 48.42188 | 10.93290 | 37111 ft | 439 kts | 156° |
| 2026-05-08 09:58 | 48.36769 | 10.97507 | 37113 ft | 438 kts | 156° |
| 2026-05-08 09:59 | 48.31345 | 11.01703 | 37110 ft | 438 kts | 156° |
| 2026-05-08 09:59 | 48.25923 | 11.05908 | 37109 ft | 439 kts | 156° |
| 2026-05-08 10:00 | 48.20498 | 11.10103 | 37109 ft | 439 kts | 156° |
| 2026-05-08 10:00 | 48.15070 | 11.14281 | 37108 ft | 439 kts | 156° |
| 2026-05-08 10:01 | 48.09641 | 11.18445 | 37085 ft | 438 kts | 157° |
| 2026-05-08 10:01 | 48.04211 | 11.22596 | 37083 ft | 438 kts | 157° |
| 2026-05-08 10:02 | 47.98783 | 11.26739 | 37110 ft | 438 kts | 157° |
| 2026-05-08 10:02 | 47.93361 | 11.30887 | 37106 ft | 438 kts | 157° |
| 2026-05-08 10:03 | 47.87937 | 11.35025 | 37101 ft | 438 kts | 157° |
| 2026-05-08 10:03 | 47.82529 | 11.39191 | 37087 ft | 438 kts | 156° |
| 2026-05-08 10:04 | 47.77186 | 11.43552 | 37079 ft | 438 kts | 155° |
| 2026-05-08 10:04 | 47.71869 | 11.47966 | 37062 ft | 438 kts | 155° |
| 2026-05-08 10:05 | 47.66542 | 11.52330 | 37065 ft | 437 kts | 156° |
| 2026-05-08 10:05 | 47.61205 | 11.56643 | 37060 ft | 436 kts | 156° |
| 2026-05-08 10:06 | 47.55876 | 11.60932 | 37068 ft | 436 kts | 156° |
| 2026-05-08 10:06 | 47.50551 | 11.65226 | 37062 ft | 435 kts | 156° |
| 2026-05-08 10:07 | 47.45233 | 11.69512 | 37068 ft | 435 kts | 156° |
| 2026-05-08 10:07 | 47.39909 | 11.73769 | 37042 ft | 434 kts | 159° |
| 2026-05-08 10:08 | 47.34277 | 11.76444 | 37048 ft | 420 kts | 178° |
| 2026-05-08 10:08 | 47.28511 | 11.76556 | 37055 ft | 413 kts | 187° |
| 2026-05-08 10:09 | 47.22766 | 11.76233 | 37056 ft | 413 kts | 187° |
| 2026-05-08 10:09 | 47.17023 | 11.75920 | 37046 ft | 413 kts | 186° |
| 2026-05-08 10:10 | 47.11277 | 11.75608 | 37052 ft | 413 kts | 187° |
| 2026-05-08 10:10 | 47.05533 | 11.75298 | 37068 ft | 413 kts | 186° |
| 2026-05-08 10:11 | 46.99788 | 11.74996 | 37067 ft | 414 kts | 187° |
| 2026-05-08 10:11 | 46.94040 | 11.74670 | 37053 ft | 413 kts | 187° |
| 2026-05-08 10:12 | 46.88290 | 11.74347 | 37057 ft | 414 kts | 186° |
| 2026-05-08 10:12 | 46.82538 | 11.74031 | 37058 ft | 414 kts | 186° |
| 2026-05-08 10:13 | 46.76785 | 11.73726 | 37039 ft | 414 kts | 186° |
| 2026-05-08 10:13 | 46.71030 | 11.73417 | 37044 ft | 414 kts | 186° |
| 2026-05-08 10:14 | 46.65274 | 11.73099 | 37053 ft | 414 kts | 186° |
| 2026-05-08 10:14 | 46.59503 | 11.73567 | 37056 ft | 422 kts | 172° |
| 2026-05-08 10:15 | 46.53841 | 11.76038 | 37047 ft | 425 kts | 167° |
| 2026-05-08 10:15 | 46.48181 | 11.78592 | 37053 ft | 426 kts | 168° |
| 2026-05-08 10:16 | 46.42537 | 11.81263 | 37057 ft | 430 kts | 161° |
| 2026-05-08 10:16 | 46.37240 | 11.85443 | 37055 ft | 435 kts | 155° |
| 2026-05-08 10:17 | 46.31981 | 11.89775 | 37047 ft | 435 kts | 155° |
| 2026-05-08 10:17 | 46.26713 | 11.94080 | 37061 ft | 435 kts | 155° |
| 2026-05-08 10:18 | 46.21440 | 11.98380 | 37065 ft | 435 kts | 155° |
| 2026-05-08 10:18 | 46.16165 | 12.02684 | 37073 ft | 435 kts | 155° |
| 2026-05-08 10:19 | 46.10903 | 12.06972 | 37074 ft | 433 kts | 156° |
| 2026-05-08 10:20 | 46.03027 | 12.13356 | 37067 ft | 433 kts | 156° |
| 2026-05-08 10:20 | 45.97775 | 12.17608 | 37067 ft | 433 kts | 156° |
| 2026-05-08 10:21 | 45.92517 | 12.21852 | 37072 ft | 434 kts | 156° |
| 2026-05-08 10:21 | 45.87253 | 12.26084 | 37073 ft | 433 kts | 156° |
| 2026-05-08 10:22 | 45.82027 | 12.30284 | 37061 ft | 433 kts | 156° |
| 2026-05-08 10:22 | 45.76767 | 12.34505 | 37073 ft | 433 kts | 156° |
| 2026-05-08 10:23 | 45.71506 | 12.38719 | 37077 ft | 433 kts | 156° |
| 2026-05-08 10:23 | 45.66246 | 12.42923 | 37087 ft | 433 kts | 156° |
| 2026-05-08 10:24 | 45.60989 | 12.47121 | 37093 ft | 433 kts | 156° |
| 2026-05-08 10:24 | 45.55734 | 12.51303 | 37094 ft | 432 kts | 156° |
| 2026-05-08 10:25 | 45.50474 | 12.55469 | 37089 ft | 432 kts | 156° |
| 2026-05-08 10:25 | 45.46069 | 12.58949 | 37074 ft | 432 kts | 156° |
| 2026-05-08 10:26 | 45.40814 | 12.63096 | 37080 ft | 432 kts | 156° |
| 2026-05-08 10:26 | 45.35556 | 12.67241 | 37086 ft | 432 kts | 156° |
| 2026-05-08 10:27 | 45.30303 | 12.71382 | 37086 ft | 432 kts | 156° |
| 2026-05-08 10:27 | 45.25080 | 12.75494 | 37074 ft | 432 kts | 156° |
| 2026-05-08 10:28 | 45.19825 | 12.79611 | 37081 ft | 432 kts | 156° |
| 2026-05-08 10:28 | 45.14566 | 12.83719 | 37084 ft | 431 kts | 156° |
| 2026-05-08 10:29 | 45.09314 | 12.87819 | 37088 ft | 431 kts | 156° |
| 2026-05-08 10:29 | 45.04063 | 12.91912 | 37091 ft | 431 kts | 156° |
| 2026-05-08 10:30 | 44.98815 | 12.95985 | 37083 ft | 430 kts | 156° |
| 2026-05-08 10:30 | 44.93571 | 13.00056 | 37089 ft | 430 kts | 156° |
| 2026-05-08 10:31 | 44.88324 | 13.04109 | 37088 ft | 430 kts | 156° |
| 2026-05-08 10:31 | 44.83079 | 13.08142 | 37083 ft | 429 kts | 156° |
| 2026-05-08 10:32 | 44.77839 | 13.12173 | 37080 ft | 429 kts | 156° |
| 2026-05-08 10:32 | 44.72605 | 13.16202 | 37079 ft | 429 kts | 156° |
| 2026-05-08 10:33 | 44.67372 | 13.20223 | 37081 ft | 429 kts | 156° |
| 2026-05-08 10:33 | 44.62139 | 13.24233 | 37077 ft | 428 kts | 156° |
| 2026-05-08 10:34 | 44.56905 | 13.28239 | 37071 ft | 428 kts | 156° |
| 2026-05-08 10:34 | 44.51671 | 13.32224 | 37073 ft | 428 kts | 156° |
| 2026-05-08 10:35 | 44.46438 | 13.36203 | 37070 ft | 428 kts | 156° |
| 2026-05-08 10:35 | 44.41206 | 13.40171 | 37075 ft | 428 kts | 156° |
| 2026-05-08 10:36 | 44.35975 | 13.44134 | 37062 ft | 428 kts | 156° |
| 2026-05-08 10:36 | 44.30743 | 13.48092 | 37062 ft | 428 kts | 156° |
| 2026-05-08 10:37 | 44.25508 | 13.52050 | 37072 ft | 428 kts | 156° |
| 2026-05-08 10:37 | 44.20275 | 13.56002 | 37060 ft | 428 kts | 156° |
| 2026-05-08 10:38 | 44.15040 | 13.59941 | 37048 ft | 428 kts | 156° |
| 2026-05-08 10:38 | 44.09801 | 13.63865 | 37052 ft | 428 kts | 156° |
| 2026-05-08 10:39 | 44.04546 | 13.67781 | 37057 ft | 428 kts | 156° |
| 2026-05-08 10:39 | 43.99294 | 13.71708 | 37061 ft | 429 kts | 156° |
| 2026-05-08 10:40 | 43.94038 | 13.75639 | 37064 ft | 429 kts | 156° |
| 2026-05-08 10:40 | 43.88782 | 13.79551 | 37068 ft | 429 kts | 156° |
| 2026-05-08 10:41 | 43.83519 | 13.83456 | 37067 ft | 429 kts | 156° |
| 2026-05-08 10:41 | 43.78255 | 13.87358 | 37065 ft | 429 kts | 156° |
| 2026-05-08 10:42 | 43.72989 | 13.91247 | 37051 ft | 429 kts | 156° |
| 2026-05-08 10:42 | 43.67723 | 13.95133 | 37053 ft | 429 kts | 156° |
| 2026-05-08 10:43 | 43.62449 | 13.99014 | 37058 ft | 430 kts | 156° |
| 2026-05-08 10:43 | 43.57174 | 14.02896 | 37058 ft | 430 kts | 156° |
| 2026-05-08 10:44 | 43.51895 | 14.06772 | 37047 ft | 430 kts | 156° |
| 2026-05-08 10:44 | 43.46608 | 14.10638 | 37047 ft | 430 kts | 156° |
| 2026-05-08 10:45 | 43.41647 | 14.15339 | 37047 ft | 438 kts | 143° |
| 2026-05-08 10:45 | 43.37078 | 14.20887 | 37048 ft | 439 kts | 143° |
| 2026-05-08 10:46 | 43.32496 | 14.26426 | 37032 ft | 439 kts | 143° |
| 2026-05-08 10:46 | 43.27905 | 14.31957 | 37040 ft | 439 kts | 143° |
| 2026-05-08 10:47 | 43.23311 | 14.37476 | 37044 ft | 439 kts | 143° |
| 2026-05-08 10:47 | 43.18708 | 14.42999 | 37048 ft | 440 kts | 143° |
| 2026-05-08 10:48 | 43.14104 | 14.48514 | 37050 ft | 440 kts | 143° |
| 2026-05-08 10:48 | 43.09496 | 14.54019 | 37039 ft | 440 kts | 143° |
| 2026-05-08 10:49 | 43.04911 | 14.59487 | 37040 ft | 440 kts | 143° |
| 2026-05-08 10:49 | 43.00289 | 14.64992 | 37045 ft | 441 kts | 143° |
| 2026-05-08 10:50 | 42.95634 | 14.70530 | 37046 ft | 441 kts | 143° |
| 2026-05-08 10:50 | 42.90999 | 14.76014 | 37047 ft | 441 kts | 143° |
| 2026-05-08 10:51 | 42.86390 | 14.81460 | 37026 ft | 441 kts | 143° |
| 2026-05-08 10:51 | 42.81718 | 14.86983 | 37025 ft | 442 kts | 143° |
| 2026-05-08 10:52 | 42.77095 | 14.92427 | 37030 ft | 443 kts | 143° |
| 2026-05-08 10:52 | 42.72429 | 14.97905 | 37024 ft | 443 kts | 143° |
| 2026-05-08 10:53 | 42.67759 | 15.03382 | 37036 ft | 444 kts | 143° |
| 2026-05-08 10:53 | 42.63089 | 15.08854 | 37036 ft | 444 kts | 143° |
| 2026-05-08 10:54 | 42.58407 | 15.14321 | 37026 ft | 444 kts | 143° |
| 2026-05-08 10:54 | 42.53714 | 15.19789 | 37029 ft | 445 kts | 143° |
| 2026-05-08 10:55 | 42.49017 | 15.25257 | 37034 ft | 445 kts | 143° |
| 2026-05-08 10:55 | 42.44313 | 15.30716 | 36578 ft | 445 kts | 143° |
| 2026-05-08 10:55 | 42.41969 | 15.33434 | 36020 ft | 442 kts | 143° |
| 2026-05-08 10:56 | 42.39642 | 15.36129 | 35496 ft | 439 kts | 142° |
| 2026-05-08 10:56 | 42.37330 | 15.38804 | 34966 ft | 436 kts | 142° |
| 2026-05-08 10:56 | 42.35034 | 15.41461 | 34456 ft | 433 kts | 141° |
| 2026-05-08 10:56 | 42.32751 | 15.44097 | 33916 ft | 430 kts | 141° |
| 2026-05-08 10:57 | 42.30476 | 15.46691 | 33370 ft | 426 kts | 144° |
| 2026-05-08 10:57 | 42.28040 | 15.48907 | 32863 ft | 419 kts | 150° |
| 2026-05-08 10:57 | 42.23141 | 15.53039 | 31876 ft | 411 kts | 150° |
| 2026-05-08 10:58 | 42.20724 | 15.55083 | 31391 ft | 408 kts | 150° |
| 2026-05-08 10:58 | 42.18333 | 15.57102 | 30910 ft | 404 kts | 150° |
| 2026-05-08 10:58 | 42.15957 | 15.59102 | 30440 ft | 400 kts | 150° |
| 2026-05-08 10:58 | 42.13606 | 15.61080 | 29964 ft | 397 kts | 150° |
| 2026-05-08 10:59 | 42.11276 | 15.63040 | 29483 ft | 393 kts | 150° |
| 2026-05-08 10:59 | 42.08973 | 15.64974 | 29052 ft | 387 kts | 150° |
| 2026-05-08 10:59 | 42.06701 | 15.66882 | 28621 ft | 382 kts | 150° |
| 2026-05-08 10:59 | 42.04457 | 15.68765 | 28198 ft | 378 kts | 150° |
| 2026-05-08 11:00 | 42.02239 | 15.70625 | 27775 ft | 374 kts | 150° |
| 2026-05-08 11:00 | 42.00043 | 15.72463 | 27361 ft | 370 kts | 150° |
| 2026-05-08 11:00 | 41.97868 | 15.74286 | 26938 ft | 367 kts | 150° |
| 2026-05-08 11:00 | 41.95712 | 15.76093 | 26519 ft | 364 kts | 150° |
| 2026-05-08 11:01 | 41.93621 | 15.77994 | 26094 ft | 363 kts | 143° |
| 2026-05-08 11:01 | 41.91805 | 15.80342 | 25656 ft | 363 kts | 134° |
| 2026-05-08 11:01 | 41.90131 | 15.82873 | 25217 ft | 361 kts | 134° |
| 2026-05-08 11:01 | 41.88458 | 15.85387 | 24769 ft | 361 kts | 134° |
| 2026-05-08 11:02 | 41.86787 | 15.87893 | 24314 ft | 360 kts | 134° |
| 2026-05-08 11:02 | 41.83434 | 15.92909 | 23367 ft | 362 kts | 134° |
| 2026-05-08 11:02 | 41.81752 | 15.95421 | 22921 ft | 361 kts | 134° |
| 2026-05-08 11:03 | 41.80082 | 15.97918 | 22463 ft | 359 kts | 134° |
| 2026-05-08 11:03 | 41.78419 | 16.00405 | 22016 ft | 357 kts | 135° |
| 2026-05-08 11:03 | 41.76767 | 16.02877 | 21579 ft | 355 kts | 134° |
| 2026-05-08 11:03 | 41.75121 | 16.05339 | 21121 ft | 354 kts | 135° |
| 2026-05-08 11:04 | 41.73482 | 16.07789 | 20692 ft | 353 kts | 134° |
| 2026-05-08 11:04 | 41.71845 | 16.10232 | 20248 ft | 352 kts | 134° |
| 2026-05-08 11:04 | 41.70214 | 16.12660 | 19817 ft | 350 kts | 133° |
| 2026-05-08 11:04 | 41.68587 | 16.15079 | 19380 ft | 349 kts | 134° |
| 2026-05-08 11:05 | 41.66961 | 16.17487 | 18952 ft | 348 kts | 134° |
| 2026-05-08 11:05 | 41.65341 | 16.19883 | 18531 ft | 347 kts | 134° |
| 2026-05-08 11:05 | 41.63727 | 16.22274 | 18065 ft | 346 kts | 133° |
| 2026-05-08 11:05 | 41.62122 | 16.24655 | 17634 ft | 343 kts | 133° |
| 2026-05-08 11:06 | 41.60527 | 16.27020 | 17213 ft | 341 kts | 134° |
| 2026-05-08 11:06 | 41.58944 | 16.29364 | 16805 ft | 339 kts | 133° |
| 2026-05-08 11:06 | 41.57367 | 16.31697 | 16400 ft | 338 kts | 133° |
| 2026-05-08 11:06 | 41.55789 | 16.34028 | 16000 ft | 338 kts | 134° |
| 2026-05-08 11:07 | 41.54212 | 16.36358 | 15590 ft | 338 kts | 134° |
| 2026-05-08 11:07 | 41.52640 | 16.38672 | 15256 ft | 334 kts | 135° |
| 2026-05-08 11:07 | 41.50964 | 16.40797 | 14841 ft | 332 kts | 139° |
| 2026-05-08 11:07 | 41.49835 | 16.42173 | 14546 ft | 332 kts | 139° |
| 2026-05-08 11:08 | 41.48133 | 16.44239 | 14228 ft | 328 kts | 140° |
| 2026-05-08 11:08 | 41.46457 | 16.46269 | 13856 ft | 326 kts | 140° |
| 2026-05-08 11:08 | 41.44792 | 16.48281 | 13525 ft | 321 kts | 140° |
| 2026-05-08 11:08 | 41.43140 | 16.50278 | 13051 ft | 321 kts | 140° |
| 2026-05-08 11:09 | 41.41424 | 16.52109 | 12675 ft | 314 kts | 150° |
| 2026-05-08 11:09 | 41.39467 | 16.53341 | 12261 ft | 309 kts | 161° |
| 2026-05-08 11:09 | 41.37451 | 16.54347 | 11818 ft | 309 kts | 161° |
| 2026-05-08 11:09 | 41.35446 | 16.55352 | 11432 ft | 307 kts | 161° |
| 2026-05-08 11:10 | 41.33457 | 16.56353 | 11040 ft | 305 kts | 160° |
| 2026-05-08 11:10 | 41.31471 | 16.57353 | 10650 ft | 306 kts | 160° |
| 2026-05-08 11:10 | 41.29478 | 16.58354 | 10250 ft | 307 kts | 160° |
| 2026-05-08 11:10 | 41.27467 | 16.59364 | 9852 ft | 309 kts | 160° |
| 2026-05-08 11:11 | 41.25488 | 16.60357 | 9709 ft | 299 kts | 160° |
| 2026-05-08 11:11 | 41.23561 | 16.61224 | 9570 ft | 287 kts | 170° |
| 2026-05-08 11:11 | 41.21632 | 16.61042 | 9448 ft | 277 kts | 200° |
| 2026-05-08 11:11 | 41.20086 | 16.59629 | 9274 ft | 270 kts | 230° |
| 2026-05-08 11:12 | 41.19218 | 16.57449 | 8930 ft | 269 kts | 248° |
| 2026-05-08 11:12 | 41.18552 | 16.55127 | 8540 ft | 269 kts | 249° |
| 2026-05-08 11:12 | 41.17898 | 16.52800 | 8136 ft | 269 kts | 249° |
| 2026-05-08 11:12 | 41.17242 | 16.50466 | 7741 ft | 269 kts | 249° |
| 2026-05-08 11:13 | 41.16583 | 16.48136 | 7353 ft | 272 kts | 248° |
| 2026-05-08 11:13 | 41.15917 | 16.45790 | 7004 ft | 274 kts | 248° |
| 2026-05-08 11:13 | 41.15227 | 16.43365 | 6276 ft | 288 kts | 248° |
| 2026-05-08 11:13 | 41.14511 | 16.40862 | 5802 ft | 290 kts | 248° |
| 2026-05-08 11:14 | 41.13801 | 16.38370 | 5565 ft | 290 kts | 247° |
| 2026-05-08 11:14 | 41.13086 | 16.35855 | 5447 ft | 295 kts | 249° |
| 2026-05-08 11:14 | 41.12349 | 16.33286 | 5362 ft | 300 kts | 249° |
| 2026-05-08 11:14 | 41.11617 | 16.30747 | 5343 ft | 287 kts | 248° |
| 2026-05-08 11:15 | 41.10931 | 16.28348 | 5334 ft | 270 kts | 248° |
| 2026-05-08 11:15 | 41.10286 | 16.26094 | 5330 ft | 254 kts | 248° |
| 2026-05-08 11:15 | 41.09586 | 16.24014 | 5213 ft | 241 kts | 232° |
| 2026-05-08 11:15 | 41.08328 | 16.22710 | 5082 ft | 225 kts | 195° |
| 2026-05-08 11:16 | 41.06835 | 16.22564 | 4964 ft | 213 kts | 163° |
| 2026-05-08 11:16 | 41.05444 | 16.23208 | 4842 ft | 212 kts | 156° |
| 2026-05-08 11:16 | 41.04071 | 16.23900 | 4716 ft | 211 kts | 156° |
| 2026-05-08 11:16 | 41.02695 | 16.24596 | 4588 ft | 213 kts | 156° |
| 2026-05-08 11:17 | 41.01336 | 16.25370 | 4460 ft | 211 kts | 143° |
| 2026-05-08 11:17 | 41.00424 | 16.26829 | 4337 ft | 207 kts | 108° |
| 2026-05-08 11:17 | 41.00322 | 16.28686 | 4211 ft | 205 kts | 74° |
| 2026-05-08 11:17 | 41.00804 | 16.30463 | 4112 ft | 206 kts | 69° |
| 2026-05-08 11:18 | 41.01321 | 16.32219 | 4025 ft | 204 kts | 69° |
| 2026-05-08 11:18 | 41.01831 | 16.33978 | 4027 ft | 206 kts | 69° |
| 2026-05-08 11:18 | 41.02343 | 16.35753 | 4026 ft | 206 kts | 72° |
| 2026-05-08 11:18 | 41.02845 | 16.37500 | 4028 ft | 201 kts | 71° |
| 2026-05-08 11:19 | 41.03341 | 16.39223 | 4031 ft | 200 kts | 71° |
| 2026-05-08 11:19 | 41.03835 | 16.40943 | 4031 ft | 201 kts | 71° |
| 2026-05-08 11:19 | 41.04332 | 16.42674 | 4034 ft | 200 kts | 71° |
| 2026-05-08 11:19 | 41.04825 | 16.44393 | 4033 ft | 199 kts | 71° |
| 2026-05-08 11:20 | 41.05318 | 16.46112 | 4033 ft | 201 kts | 71° |
| 2026-05-08 11:20 | 41.05814 | 16.47844 | 4033 ft | 202 kts | 71° |
| 2026-05-08 11:20 | 41.06301 | 16.49542 | 3992 ft | 193 kts | 72° |
| 2026-05-08 11:20 | 41.06774 | 16.51193 | 3806 ft | 188 kts | 72° |
| 2026-05-08 11:21 | 41.07235 | 16.52808 | 3576 ft | 188 kts | 72° |
| 2026-05-08 11:21 | 41.07696 | 16.54420 | 3337 ft | 187 kts | 72° |
| 2026-05-08 11:21 | 41.08155 | 16.56029 | 3099 ft | 187 kts | 72° |
| 2026-05-08 11:21 | 41.08619 | 16.57660 | 2846 ft | 191 kts | 70° |
| 2026-05-08 11:22 | 41.09093 | 16.59315 | 2554 ft | 194 kts | 71° |
| 2026-05-08 11:22 | 41.09571 | 16.60998 | 2288 ft | 195 kts | 72° |
| 2026-05-08 11:22 | 41.10043 | 16.62649 | 2015 ft | 186 kts | 72° |
| 2026-05-08 11:22 | 41.10486 | 16.64201 | 1783 ft | 171 kts | 72° |
| 2026-05-08 11:23 | 41.10875 | 16.65564 | 1572 ft | 146 kts | 72° |
| 2026-05-08 11:23 | 41.11221 | 16.66780 | 1371 ft | 137 kts | 72° |
| 2026-05-08 11:23 | 41.11555 | 16.67958 | 1163 ft | 137 kts | 70° |
| 2026-05-08 11:23 | 41.11883 | 16.69107 | 1037 ft | 133 kts | 74° |
| 2026-05-08 11:24 | 41.12203 | 16.70256 | 883 ft | 131 kts | 73° |
| 2026-05-08 11:24 | 41.12527 | 16.71385 | 697 ft | 134 kts | 69° |
| 2026-05-08 11:24 | 41.12859 | 16.72533 | 514 ft | 131 kts | 68° |
| 2026-05-08 11:24 | 41.13174 | 16.73661 | 330 ft | 130 kts | 73° |
| 2026-05-08 11:25 | 41.13494 | 16.74775 | 194 ft | 128 kts | 72° |
| 2026-05-08 11:25 | 41.13775 | 16.75795 | 148 ft | 103 kts | 69° |
| 2026-05-08 11:25 | 41.13963 | 16.76456 | 122 ft | 50 kts | 69° |
| 2026-05-08 11:25 | 41.14004 | 16.76646 | 120 ft | 12 kts | 112° |
| 2026-05-08 11:26 | 41.13967 | 16.76719 | 119 ft | 9 kts | 120° |
| 2026-05-08 11:26 | 41.13939 | 16.76796 | 117 ft | 8 kts | 115° |
| 2026-05-08 11:26 | 41.13916 | 16.76861 | 117 ft | 0 kts | 114° |
| 2026-05-08 11:26 | 41.13915 | 16.76862 | 117 ft | 0 kts | 122° |
| 2026-05-08 11:27 | 41.13911 | 16.76864 | 115 ft | 1 kts | 150° |
| 2026-05-08 11:27 | 41.13904 | 16.76864 | 116 ft | 3 kts | 178° |
| 2026-05-08 11:27 | 41.13889 | 16.76844 | 116 ft | 3 kts | 237° |
| 2026-05-08 11:27 | 41.13873 | 16.76797 | 118 ft | 8 kts | 250° |
| 2026-05-08 11:28 | 41.13839 | 16.76752 | 119 ft | 5 kts | 191° |
| 2026-05-08 11:28 | 41.13821 | 16.76761 | 117 ft | 1 kts | 155° |
| 2026-05-08 11:28 | 41.13799 | 16.76782 | 118 ft | 6 kts | 139° |
| 2026-05-08 11:28 | 41.13774 | 16.76825 | 122 ft | 6 kts | 120° |
| 2026-05-08 11:29 | 41.13762 | 16.76880 | 124 ft | 6 kts | 95° |
| 2026-05-08 11:29 | 41.13777 | 16.76937 | 121 ft | 7 kts | 47° |
| 2026-05-08 11:29 | 41.13811 | 16.76920 | 120 ft | 5 kts | 333° |
| 2026-05-08 11:29 | 41.13822 | 16.76907 | 118 ft | 0 kts | 310° |